createdAt,value
2022-10-10T00:07:35.041Z,45.30
2022-10-10T00:10:01.521Z,45.20
2022-10-10T00:12:27.990Z,45.20
2022-10-10T00:23:26.081Z,45.20
2022-10-10T00:34:23.946Z,45.20
2022-10-10T00:45:19.838Z,45.10
2022-10-10T00:47:50.058Z,45.20
2022-10-10T01:04:31.879Z,45.00
2022-10-10T01:15:23.911Z,45.00
2022-10-10T01:18:01.910Z,45.10
2022-10-10T01:20:28.386Z,45.10
2022-10-10T01:22:54.871Z,45.10
2022-10-10T01:31:07.887Z,45.10
2022-10-10T01:33:34.340Z,45.10
2022-10-10T01:38:55.886Z,45.10
2022-10-10T01:41:22.345Z,45.10
2022-10-10T01:43:49.841Z,45.00
2022-10-10T01:49:06.810Z,45.10
2022-10-10T01:51:33.304Z,45.00
2022-10-10T01:54:01.863Z,45.00
2022-10-10T01:56:31.907Z,45.00
2022-10-10T02:01:43.908Z,45.10
2022-10-10T02:04:14.076Z,44.90
2022-10-10T02:06:40.556Z,45.00
2022-10-10T02:09:07.874Z,45.20
2022-10-10T02:11:37.930Z,45.20
2022-10-10T02:19:43.911Z,45.20
2022-10-10T02:22:10.368Z,45.10
2022-10-10T02:24:43.966Z,45.20
2022-10-10T02:27:10.439Z,45.20
2022-10-10T02:29:37.930Z,45.10
2022-10-10T02:32:07.931Z,45.00
2022-10-10T02:40:16.030Z,45.00
2022-10-10T02:42:56.126Z,45.10
2022-10-10T02:53:55.974Z,45.20
2022-10-10T03:10:37.975Z,45.10
2022-10-10T03:13:04.455Z,45.40
2022-10-10T03:15:31.950Z,45.30
2022-10-10T03:18:02.152Z,45.40
2022-10-10T03:20:28.643Z,45.40
2022-10-10T03:22:55.114Z,45.20
2022-10-10T03:25:21.604Z,45.10
2022-10-10T03:27:49.929Z,45.30
2022-10-10T03:33:07.102Z,45.40
2022-10-10T03:35:33.594Z,45.40
2022-10-10T03:38:00.052Z,45.40
2022-10-10T03:40:26.558Z,45.50
2022-10-10T03:42:55.985Z,45.40
2022-10-10T03:48:13.086Z,45.60
2022-10-10T03:50:39.573Z,45.60
2022-10-10T03:55:49.974Z,45.70
2022-10-10T04:15:14.983Z,46.10
2022-10-10T04:17:41.443Z,46.10
2022-10-10T04:20:07.933Z,46.10
2022-10-10T04:22:34.405Z,46.10
2022-10-10T04:28:00.713Z,46.20
2022-10-10T04:30:27.608Z,46.20
2022-10-10T04:49:56.041Z,46.50
2022-10-10T05:00:55.007Z,46.50
2022-10-10T05:03:32.148Z,46.50
2022-10-10T05:08:50.035Z,46.60
2022-10-10T05:22:38.933Z,46.50
2022-10-10T05:27:56.063Z,46.20
2022-10-10T05:41:45.093Z,46.00
2022-10-10T05:49:50.083Z,46.10
2022-10-10T05:52:20.237Z,46.00
2022-10-10T05:57:32.095Z,45.90
2022-10-10T06:00:02.098Z,46.00
2022-10-10T06:05:14.109Z,46.00
2022-10-10T06:18:57.259Z,46.30
2022-10-10T06:24:14.108Z,46.30
2022-10-10T06:29:30.951Z,46.40
2022-10-10T06:31:57.431Z,46.40
2022-10-10T06:34:23.911Z,46.50
2022-10-10T06:45:26.135Z,46.40
2022-10-10T06:47:52.615Z,46.30
2022-10-10T07:01:43.235Z,46.30
2022-10-10T07:04:09.741Z,46.40
2022-10-10T07:06:36.223Z,46.40
2022-10-10T07:09:08.194Z,46.40
2022-10-10T07:11:38.157Z,46.40
2022-10-10T07:14:08.337Z,46.50
2022-10-10T07:19:26.170Z,46.40
2022-10-10T07:27:27.062Z,46.50
2022-10-10T07:29:53.569Z,46.50
2022-10-10T07:32:20.027Z,46.60
2022-10-10T07:34:46.523Z,46.70
2022-10-10T07:42:56.861Z,46.70
2022-10-10T07:48:13.951Z,46.60
2022-10-10T07:59:14.209Z,46.80
2022-10-10T08:07:20.615Z,47.00
2022-10-10T08:09:47.111Z,47.10
2022-10-10T08:12:20.329Z,47.30
2022-10-10T08:17:38.205Z,47.20
2022-10-10T08:22:56.160Z,47.10
2022-10-10T08:25:26.233Z,47.20
2022-10-10T08:27:52.714Z,47.20
2022-10-10T08:30:20.212Z,47.20
2022-10-10T08:32:46.667Z,47.30
2022-10-10T08:40:54.007Z,47.20
2022-10-10T08:43:26.403Z,47.30
2022-10-10T08:48:42.712Z,47.30
2022-10-10T08:54:00.012Z,47.30
2022-10-10T08:59:20.260Z,47.40
2022-10-10T09:02:18.329Z,47.50
2022-10-10T09:04:38.251Z,47.40
2022-10-10T09:07:04.733Z,47.50
2022-10-10T09:09:32.255Z,47.40
2022-10-10T09:14:42.851Z,47.50
2022-10-10T09:17:09.318Z,47.50
2022-10-10T09:22:25.858Z,47.60
2022-10-10T09:24:56.257Z,47.60
2022-10-10T09:27:38.387Z,47.60
2022-10-10T09:30:08.278Z,47.70
2022-10-10T09:32:34.747Z,47.70
2022-10-10T09:35:01.243Z,47.70
2022-10-10T09:37:46.384Z,47.70
2022-10-10T09:43:05.292Z,47.70
2022-10-10T09:45:33.741Z,47.80
2022-10-10T09:48:08.484Z,47.80
2022-10-10T09:50:40.492Z,47.80
2022-10-10T09:53:10.153Z,47.90
2022-10-10T09:55:36.625Z,47.80
2022-10-10T09:58:03.381Z,47.80
2022-10-10T10:03:20.289Z,48.00
2022-10-10T10:05:46.753Z,48.00
2022-10-10T10:08:14.248Z,48.00
2022-10-10T10:10:44.298Z,48.00
2022-10-10T10:13:10.782Z,48.00
2022-10-10T10:15:37.257Z,48.10
2022-10-10T10:18:03.734Z,48.00
2022-10-10T10:26:11.118Z,48.20
2022-10-10T10:28:37.667Z,48.20
2022-10-10T10:31:08.331Z,48.20
2022-10-10T10:33:34.805Z,48.30
2022-10-10T10:36:01.817Z,48.30
2022-10-10T10:38:32.436Z,48.40
2022-10-10T10:40:58.916Z,48.30
2022-10-10T10:43:25.376Z,48.40
2022-10-10T10:45:51.856Z,48.50
2022-10-10T10:48:20.309Z,48.50
2022-10-10T10:50:50.351Z,48.50
2022-10-10T10:53:20.494Z,48.60
2022-10-10T10:55:46.959Z,48.50
2022-10-10T11:01:23.567Z,48.60
2022-10-10T11:05:16.074Z,48.60
2022-10-10T11:06:32.944Z,48.60
2022-10-10T11:08:59.455Z,48.70
2022-10-10T11:11:25.935Z,48.60
2022-10-10T11:13:52.419Z,48.70
2022-10-10T11:16:43.446Z,48.70
2022-10-10T11:19:06.782Z,48.70
2022-10-10T11:21:33.254Z,48.70
2022-10-10T11:23:59.727Z,48.80
2022-10-10T11:26:26.214Z,48.80
2022-10-10T11:28:52.735Z,48.80
2022-10-10T11:31:19.292Z,48.80
2022-10-10T11:33:45.757Z,48.90
2022-10-10T11:39:03.032Z,49.00
2022-10-10T11:44:20.227Z,49.00
2022-10-10T11:46:46.699Z,49.10
2022-10-10T11:49:14.333Z,49.10
2022-10-10T11:51:44.375Z,49.20
2022-10-10T11:54:14.574Z,49.20
2022-10-10T11:56:44.398Z,49.20
2022-10-10T11:59:10.888Z,49.20
2022-10-10T12:07:18.065Z,49.30
2022-10-10T12:09:44.590Z,49.30
2022-10-10T12:12:11.066Z,49.30
2022-10-10T12:17:28.259Z,49.40
2022-10-10T12:19:54.726Z,49.40
2022-10-10T12:22:26.427Z,49.40
2022-10-10T12:27:43.124Z,49.40
2022-10-10T12:30:10.735Z,49.20
2022-10-10T12:32:37.216Z,49.40
2022-10-10T12:35:08.416Z,49.40
2022-10-10T12:37:34.877Z,49.40
2022-10-10T12:40:01.360Z,49.40
2022-10-10T12:45:11.858Z,49.60
2022-10-10T12:48:03.496Z,49.50
2022-10-10T12:50:26.419Z,49.60
2022-10-10T12:52:56.645Z,49.60
2022-10-10T12:55:23.120Z,49.60
2022-10-10T12:57:50.399Z,49.60
2022-10-10T13:00:16.891Z,49.70
2022-10-10T13:02:44.404Z,49.70
2022-10-10T13:05:10.901Z,49.70
2022-10-10T13:07:38.402Z,49.60
2022-10-10T13:10:14.650Z,49.70
2022-10-10T13:12:41.125Z,49.70
2022-10-10T13:17:58.034Z,49.70
2022-10-10T13:20:24.525Z,49.80
2022-10-10T13:22:56.631Z,49.80
2022-10-10T13:25:26.452Z,49.80
2022-10-10T13:28:02.674Z,49.90
2022-10-10T13:30:29.201Z,49.90
2022-10-10T13:32:55.692Z,49.90
2022-10-10T13:35:22.207Z,50.00
2022-10-10T13:37:48.708Z,50.10
2022-10-10T13:40:15.222Z,49.90
2022-10-10T13:42:41.702Z,50.20
2022-10-10T13:45:08.470Z,50.10
2022-10-10T13:47:38.505Z,50.10
2022-10-10T13:50:08.469Z,50.20
2022-10-10T13:52:34.932Z,50.20
2022-10-10T13:55:01.421Z,50.20
2022-10-10T13:57:27.897Z,50.30
2022-10-10T13:59:56.483Z,50.30
2022-10-10T14:02:26.653Z,50.30
2022-10-10T14:04:53.139Z,50.50
2022-10-10T14:07:19.620Z,50.40
2022-10-10T14:09:48.961Z,50.40
2022-10-10T14:12:19.158Z,50.40
2022-10-10T14:14:50.498Z,50.40
2022-10-10T14:17:16.978Z,50.60
2022-10-10T14:19:44.505Z,50.60
2022-10-10T14:22:20.693Z,50.60
2022-10-10T14:24:50.503Z,50.60
2022-10-10T14:27:16.979Z,50.70
2022-10-10T14:29:44.513Z,50.80
2022-10-10T14:32:10.978Z,50.90
2022-10-10T14:34:37.475Z,50.90
2022-10-10T14:37:03.970Z,51.00
2022-10-10T14:39:30.461Z,50.90
2022-10-10T14:42:08.614Z,51.00
2022-10-10T14:44:35.119Z,50.90
2022-10-10T14:47:01.578Z,50.90
2022-10-10T14:49:28.056Z,50.90
2022-10-10T14:51:54.524Z,51.00
2022-10-10T14:54:26.544Z,51.00
2022-10-10T14:57:07.150Z,51.10
2022-10-10T14:59:46.425Z,51.20
2022-10-10T15:02:16.392Z,51.10
2022-10-10T15:04:42.878Z,51.20
2022-10-10T15:07:13.396Z,51.20
2022-10-10T15:09:43.139Z,51.30
2022-10-10T15:12:14.072Z,51.20
2022-10-10T15:14:40.542Z,51.30
2022-10-10T15:17:07.011Z,51.30
2022-10-10T15:22:24.062Z,51.30
2022-10-10T15:24:50.568Z,51.30
2022-10-10T15:27:17.061Z,51.40
2022-10-10T15:29:44.567Z,51.40
2022-10-10T15:32:11.037Z,51.40
2022-10-10T15:34:37.493Z,51.40
2022-10-10T15:37:03.986Z,51.40
2022-10-10T15:39:30.533Z,51.50
2022-10-10T15:42:12.096Z,51.50
2022-10-10T15:44:40.695Z,51.40
2022-10-10T15:47:08.559Z,51.50
2022-10-10T15:49:35.038Z,51.40
2022-10-10T15:52:02.572Z,51.50
2022-10-10T15:54:32.580Z,51.50
2022-10-10T15:56:59.064Z,51.60
2022-10-10T15:59:25.546Z,51.50
2022-10-10T16:04:42.232Z,51.70
2022-10-10T16:09:56.553Z,51.60
2022-10-10T16:15:14.593Z,51.70
2022-10-10T16:17:41.067Z,51.70
2022-10-10T16:20:07.522Z,51.70
2022-10-10T16:22:33.997Z,51.70
2022-10-10T16:25:22.256Z,51.70
2022-10-10T16:27:49.015Z,51.80
2022-10-10T16:30:15.520Z,51.80
2022-10-10T16:32:44.590Z,51.80
2022-10-10T16:35:14.610Z,51.80
2022-10-10T16:37:41.095Z,51.90
2022-10-10T16:42:58.095Z,52.00
2022-10-10T16:45:24.588Z,51.90
2022-10-10T16:47:51.075Z,51.90
2022-10-10T16:50:17.567Z,51.90
2022-10-10T16:52:44.033Z,51.80
2022-10-10T16:55:10.525Z,51.90
2022-10-10T16:57:38.605Z,52.00
2022-10-10T17:00:05.239Z,52.00
2022-10-10T17:02:31.741Z,51.90
2022-10-10T17:04:58.204Z,52.00
2022-10-10T17:07:26.628Z,52.10
2022-10-10T17:09:53.112Z,52.00
2022-10-10T17:12:19.591Z,51.90
2022-10-10T17:14:46.076Z,52.00
2022-10-10T17:17:14.663Z,52.10
2022-10-10T17:19:41.145Z,52.10
2022-10-10T17:24:58.314Z,52.10
2022-10-10T17:30:15.122Z,52.10
2022-10-10T17:32:41.588Z,52.20
2022-10-10T17:38:04.448Z,52.20
2022-10-10T17:40:44.672Z,52.20
2022-10-10T17:43:14.861Z,52.20
2022-10-10T17:45:44.669Z,52.20
2022-10-10T17:48:11.126Z,52.30
2022-10-10T17:50:37.601Z,52.30
2022-10-10T17:55:48.246Z,52.30
2022-10-10T17:58:14.707Z,52.40
2022-10-10T18:00:44.750Z,52.30
2022-10-10T18:03:11.262Z,52.30
2022-10-10T18:05:37.745Z,52.40
2022-10-10T18:08:04.232Z,52.40
2022-10-10T18:10:30.730Z,52.40
2022-10-10T18:13:02.865Z,52.50
2022-10-10T18:15:32.707Z,52.50
2022-10-10T18:18:14.743Z,52.50
2022-10-10T18:20:41.239Z,52.50
2022-10-10T18:23:08.666Z,52.60
2022-10-10T18:25:38.698Z,52.60
2022-10-10T18:28:05.157Z,52.60
2022-10-10T18:30:31.652Z,52.60
2022-10-10T18:32:58.114Z,52.70
2022-10-10T18:35:26.708Z,52.70
2022-10-10T18:37:56.906Z,52.70
2022-10-10T18:43:14.214Z,52.90
2022-10-10T18:48:31.008Z,52.90
2022-10-10T18:56:39.319Z,53.00
2022-10-10T18:59:08.883Z,53.00
2022-10-10T19:01:35.418Z,52.90
2022-10-10T19:04:01.940Z,53.00
2022-10-10T19:09:19.131Z,53.00
2022-10-10T19:14:36.340Z,53.10
2022-10-10T19:17:08.748Z,53.10
2022-10-10T19:19:35.224Z,53.10
2022-10-10T19:22:01.708Z,53.20
2022-10-10T19:24:28.180Z,53.20
2022-10-10T19:26:54.668Z,53.10
2022-10-10T19:29:21.137Z,53.20
2022-10-10T19:31:47.652Z,53.10
2022-10-10T19:34:14.124Z,53.20
2022-10-10T19:36:42.270Z,53.20
2022-10-10T19:39:08.894Z,53.20
2022-10-10T19:41:38.786Z,53.10
2022-10-10T19:44:05.300Z,53.20
2022-10-10T19:46:36.066Z,53.20
2022-10-10T19:49:20.968Z,53.20
2022-10-10T19:54:38.096Z,53.20
2022-10-10T19:59:55.357Z,53.20
2022-10-10T20:02:21.848Z,53.20
2022-10-10T20:04:48.324Z,53.20
2022-10-10T20:07:20.815Z,53.20
2022-10-10T20:09:50.984Z,53.20
2022-10-10T20:15:08.121Z,53.20
2022-10-10T20:17:38.807Z,53.30
2022-10-10T20:20:05.314Z,53.20
2022-10-10T20:22:32.757Z,53.30
2022-10-10T20:24:59.233Z,53.20
2022-10-10T20:30:20.797Z,53.20
2022-10-10T20:32:47.694Z,53.20
2022-10-10T20:35:14.268Z,53.30
2022-10-10T20:37:45.031Z,53.30
2022-10-10T20:40:11.529Z,53.20
2022-10-10T20:42:44.843Z,53.30
2022-10-10T20:45:14.817Z,53.30
2022-10-10T20:47:41.300Z,53.30
2022-10-10T20:50:08.823Z,53.30
2022-10-10T20:52:35.294Z,53.20
2022-10-10T20:55:02.798Z,53.20
2022-10-10T20:57:29.272Z,53.20
2022-10-10T21:02:43.130Z,53.30
2022-10-10T21:05:09.632Z,53.10
2022-10-10T21:07:38.796Z,53.30
2022-10-10T21:10:05.248Z,53.30
2022-10-10T21:15:22.228Z,53.30
2022-10-10T21:17:48.714Z,53.20
2022-10-10T21:20:15.201Z,53.30
2022-10-10T21:22:41.682Z,53.30
2022-10-10T21:25:08.197Z,53.20
2022-10-10T21:27:44.859Z,53.20
2022-10-10T21:30:11.347Z,53.20
2022-10-10T21:32:44.981Z,53.20
2022-10-10T21:35:11.466Z,53.20
2022-10-10T21:37:37.933Z,53.20
2022-10-10T21:42:48.617Z,53.20
2022-10-10T21:45:15.126Z,53.20
2022-10-10T21:47:41.871Z,53.20
2022-10-10T21:50:08.384Z,53.20
2022-10-10T21:52:39.051Z,53.20
2022-10-10T21:55:15.070Z,53.20
2022-10-10T21:57:41.534Z,53.10
2022-10-10T22:00:08.880Z,53.10
2022-10-10T22:02:38.889Z,53.10
2022-10-10T22:05:05.385Z,53.00
2022-10-10T22:07:31.854Z,53.00
2022-10-10T22:09:58.321Z,53.10
2022-10-10T22:12:26.901Z,53.10
2022-10-10T22:14:56.945Z,53.10
2022-10-10T22:25:55.326Z,53.00
2022-10-10T22:28:26.965Z,53.10
2022-10-10T22:30:56.924Z,53.10
2022-10-10T22:36:07.899Z,53.00
2022-10-10T22:38:34.638Z,53.00
2022-10-10T22:41:01.130Z,52.90
2022-10-10T22:43:32.917Z,53.00
2022-10-10T22:48:50.916Z,52.90
2022-10-10T22:51:20.923Z,52.90
2022-10-10T22:53:47.400Z,52.90
2022-10-10T22:59:08.934Z,52.80
2022-10-10T23:07:16.166Z,52.90
2022-10-10T23:09:57.097Z,52.80
2022-10-10T23:15:14.947Z,52.70
2022-10-10T23:20:32.955Z,52.80
2022-10-10T23:23:02.956Z,52.70
2022-10-10T23:28:13.462Z,52.80
2022-10-10T23:33:36.756Z,52.70
2022-10-10T23:41:44.952Z,52.70
2022-10-10T23:58:20.981Z,52.60
